Time;durP1;ratioP1;P1;durP2;ratioP2;P2;SDS_P1;SDS_P2;PMS_P1;PMS_P2;Temp;Humidity;BMP_temperature;BMP_pressure;BME280_temperature;BME280_humidity;BME280_pressure;Samples;Min_cycle;Max_cycle;Signal;HPM_P1;HPM_P2
2021/09/25 00:01:21;;;;;;;11.17;7.97;;;16.30;99.90;;;;;;5041768;28;20183;-78
2021/09/25 00:03:47;;;;;;;9.00;8.07;;;16.30;99.90;;;;;;5040761;28;20528;-78
2021/09/25 00:06:12;;;;;;;9.40;8.23;;;16.30;99.90;;;;;;5046916;28;20192;-78
2021/09/25 00:08:38;;;;;;;11.03;7.17;;;16.30;99.90;;;;;;5041540;28;20700;-79
2021/09/25 00:11:04;;;;;;;7.90;6.57;;;16.40;99.90;;;;;;5039876;28;20304;-79
2021/09/25 00:13:30;;;;;;;11.23;6.97;;;16.40;99.90;;;;;;5041697;28;20268;-79
2021/09/25 00:15:56;;;;;;;10.80;5.93;;;16.40;99.90;;;;;;5039271;28;20851;-78
2021/09/25 00:18:21;;;;;;;7.43;6.73;;;16.40;99.90;;;;;;5041963;28;20201;-79
2021/09/25 00:20:47;;;;;;;8.20;5.83;;;16.30;99.90;;;;;;5041370;28;20177;-79
2021/09/25 00:23:13;;;;;;;7.80;5.70;;;16.40;99.90;;;;;;5041261;28;20196;-79
2021/09/25 00:25:39;;;;;;;8.10;5.30;;;16.40;99.90;;;;;;5040660;28;20178;-78
2021/09/25 00:28:04;;;;;;;8.60;5.43;;;16.40;99.90;;;;;;5040048;28;20278;-78
2021/09/25 00:30:30;;;;;;;6.13;5.50;;;16.40;99.90;;;;;;5041105;28;20189;-78
2021/09/25 00:32:56;;;;;;;7.70;5.20;;;16.30;99.90;;;;;;5041617;28;20185;-78
2021/09/25 00:35:22;;;;;;;8.20;5.10;;;16.30;99.90;;;;;;5040155;28;20184;-79
2021/09/25 00:37:47;;;;;;;7.03;5.10;;;16.30;99.90;;;;;;5041650;28;20595;-79
2021/09/25 00:40:15;;;;;;;8.87;5.20;;;16.30;99.90;;;;;;5041884;28;20236;-79
2021/09/25 00:42:41;;;;;;;10.33;4.83;;;16.30;99.90;;;;;;5042289;28;20186;-79
2021/09/25 00:45:09;;;;;;;6.00;4.77;;;16.30;99.90;;;;;;5040604;28;20447;-78
2021/09/25 00:47:36;;;;;;;5.87;5.13;;;16.30;99.90;;;;;;5041683;28;20590;-78
2021/09/25 00:50:02;;;;;;;8.53;5.10;;;16.30;99.90;;;;;;5040560;28;20431;-78
2021/09/25 00:52:28;;;;;;;8.93;5.80;;;16.20;99.90;;;;;;5041326;28;20749;-78
2021/09/25 00:54:53;;;;;;;5.93;5.33;;;16.20;99.90;;;;;;5040761;28;20542;-78
2021/09/25 00:57:19;;;;;;;4.83;4.37;;;16.30;99.90;;;;;;5041719;28;20314;-78
2021/09/25 00:59:46;;;;;;;7.30;5.50;;;16.30;99.90;;;;;;5040849;28;20177;-78
2021/09/25 01:02:16;;;;;;;6.93;6.00;;;16.30;99.90;;;;;;5040404;28;20451;-78
2021/09/25 01:04:43;;;;;;;6.27;5.67;;;16.20;99.90;;;;;;5041197;28;20451;-78
2021/09/25 01:07:09;;;;;;;8.17;6.20;;;16.10;99.90;;;;;;5039322;28;20905;-79
2021/09/25 01:09:34;;;;;;;8.00;5.40;;;16.10;99.90;;;;;;5040871;28;20435;-78
2021/09/25 01:12:01;;;;;;;6.07;5.53;;;16.10;99.90;;;;;;5040085;28;20185;-78
2021/09/25 01:14:30;;;;;;;7.93;6.80;;;16.10;99.90;;;;;;5041873;28;20186;-79
2021/09/25 01:17:07;;;;;;;8.53;6.93;;;16.10;99.90;;;;;;5038808;28;20574;-78
2021/09/25 01:19:33;;;;;;;11.80;7.30;;;16.00;99.90;;;;;;5039708;28;20531;-78
2021/09/25 01:21:59;;;;;;;9.97;6.93;;;16.00;99.90;;;;;;5041192;28;20432;-78
2021/09/25 01:24:24;;;;;;;8.43;7.60;;;16.00;99.90;;;;;;5040935;28;20493;-78
2021/09/25 01:26:50;;;;;;;10.90;7.40;;;16.00;99.90;;;;;;5038918;28;20189;-78
2021/09/25 01:29:16;;;;;;;11.20;7.60;;;16.00;99.90;;;;;;5038724;28;20852;-78
2021/09/25 01:31:41;;;;;;;7.50;6.83;;;16.00;99.90;;;;;;5040706;28;20189;-78
2021/09/25 01:34:08;;;;;;;9.27;7.40;;;15.90;99.90;;;;;;5038784;28;20197;-78
2021/09/25 01:36:33;;;;;;;11.83;7.40;;;16.00;99.90;;;;;;5039214;28;20600;-78
2021/09/25 01:38:59;;;;;;;8.73;7.83;;;15.90;99.90;;;;;;5042989;28;20439;-78
2021/09/25 01:41:25;;;;;;;8.80;7.73;;;15.90;99.90;;;;;;5044833;28;20228;-78
2021/09/25 01:43:50;;;;;;;11.63;7.70;;;15.90;99.90;;;;;;5044950;28;20276;-78
2021/09/25 01:46:18;;;;;;;10.40;7.90;;;15.90;99.90;;;;;;5042566;28;20225;-78
2021/09/25 01:48:44;;;;;;;9.67;8.37;;;15.80;99.90;;;;;;5044052;28;20189;-78
2021/09/25 01:51:11;;;;;;;14.70;10.20;;;15.80;99.90;;;;;;5044868;28;20813;-78
2021/09/25 01:53:37;;;;;;;9.53;8.57;;;15.80;99.90;;;;;;5045215;28;20501;-78
2021/09/25 01:56:12;;;;;;;11.70;8.97;;;15.80;99.90;;;;;;5042302;28;20432;-78
2021/09/25 01:58:38;;;;;;;12.03;8.50;;;15.80;99.90;;;;;;5044921;28;20238;-78
2021/09/25 02:01:05;;;;;;;11.60;9.67;;;15.80;99.90;;;;;;5043919;28;20807;-78
2021/09/25 02:03:35;;;;;;;9.97;8.83;;;15.80;99.90;;;;;;5044916;28;20440;-78
2021/09/25 02:06:03;;;;;;;11.53;9.07;;;15.80;99.90;;;;;;5043099;28;20437;-78
2021/09/25 02:08:29;;;;;;;12.53;10.13;;;15.70;99.90;;;;;;5044213;28;20434;-78
2021/09/25 02:10:55;;;;;;;11.60;9.40;;;15.70;99.90;;;;;;5045282;28;20516;-78
2021/09/25 02:13:21;;;;;;;16.93;10.27;;;15.70;99.90;;;;;;5046110;28;20439;-78
2021/09/25 02:15:46;;;;;;;17.83;11.37;;;15.70;99.90;;;;;;5044209;28;20216;-78
2021/09/25 02:18:12;;;;;;;12.03;10.10;;;15.60;99.90;;;;;;5043741;28;20237;-78
2021/09/25 02:20:38;;;;;;;14.73;10.70;;;15.60;99.90;;;;;;5043595;28;20236;-78
2021/09/25 02:23:03;;;;;;;24.07;11.60;;;15.60;99.90;;;;;;5044369;28;20173;-77
2021/09/25 02:25:29;;;;;;;21.00;11.60;;;15.60;99.90;;;;;;5042758;28;20249;-78
2021/09/25 02:27:55;;;;;;;14.70;11.40;;;15.50;99.90;;;;;;5041041;28;20759;-78
2021/09/25 02:30:21;;;;;;;18.87;12.13;;;15.60;99.90;;;;;;5043151;28;20189;-78
2021/09/25 02:32:47;;;;;;;17.30;12.60;;;15.60;99.90;;;;;;5044365;28;20182;-78
2021/09/25 02:35:15;;;;;;;14.87;12.53;;;15.60;99.90;;;;;;5041393;28;20635;-78
2021/09/25 02:37:41;;;;;;;19.83;11.70;;;15.60;99.90;;;;;;5042485;28;20455;-78
2021/09/25 02:40:08;;;;;;;19.77;14.33;;;15.50;99.90;;;;;;5043552;28;20447;-78
2021/09/25 02:42:34;;;;;;;14.97;11.83;;;15.60;99.90;;;;;;5059005;28;20185;-78
2021/09/25 02:44:59;;;;;;;17.80;14.03;;;15.60;99.90;;;;;;5043749;28;21052;-79
2021/09/25 02:47:25;;;;;;;17.60;12.83;;;15.60;99.90;;;;;;5042399;28;20526;-78
2021/09/25 02:49:51;;;;;;;15.20;12.37;;;15.60;99.90;;;;;;5041282;28;20186;-78
2021/09/25 02:52:16;;;;;;;18.73;13.67;;;15.60;99.90;;;;;;5043706;28;20197;-78
2021/09/25 02:54:42;;;;;;;15.87;13.20;;;15.60;99.90;;;;;;5042290;28;20189;-78
2021/09/25 02:57:08;;;;;;;19.77;15.00;;;15.60;99.90;;;;;;5042302;28;20233;-78
2021/09/25 02:59:34;;;;;;;18.70;14.67;;;15.60;99.90;;;;;;5042103;28;20180;-78
2021/09/25 03:01:59;;;;;;;25.23;15.50;;;15.50;99.90;;;;;;5042945;28;20197;-78
2021/09/25 03:04:25;;;;;;;23.57;14.77;;;15.50;99.90;;;;;;5042995;28;20189;-78
2021/09/25 03:06:51;;;;;;;25.30;16.87;;;15.50;99.90;;;;;;5039607;28;20695;-78
2021/09/25 03:09:16;;;;;;;17.87;13.30;;;15.50;99.90;;;;;;5043485;28;20177;-78
2021/09/25 03:11:42;;;;;;;19.83;14.90;;;15.50;99.90;;;;;;5044492;28;20177;-78
2021/09/25 03:14:08;;;;;;;21.60;15.00;;;15.50;99.90;;;;;;5043772;28;20382;-78
2021/09/25 03:16:33;;;;;;;25.00;15.13;;;15.40;99.90;;;;;;5040194;28;20182;-78
2021/09/25 03:18:59;;;;;;;19.93;14.77;;;15.50;99.90;;;;;;5041331;28;20207;-78
2021/09/25 03:21:25;;;;;;;21.00;15.00;;;15.50;99.90;;;;;;5042832;28;20509;-78
2021/09/25 03:23:50;;;;;;;21.87;16.77;;;15.50;99.90;;;;;;5043369;28;20235;-78
2021/09/25 03:26:16;;;;;;;18.90;14.10;;;15.50;99.90;;;;;;5041303;28;20283;-78
2021/09/25 03:28:42;;;;;;;22.03;15.70;;;15.50;99.90;;;;;;5042698;28;20169;-78
2021/09/25 03:31:08;;;;;;;20.80;15.07;;;15.50;99.90;;;;;;5041526;28;20239;-78
2021/09/25 03:33:34;;;;;;;21.77;14.70;;;15.50;99.90;;;;;;5042300;28;20428;-78
2021/09/25 03:35:59;;;;;;;19.67;15.93;;;15.50;99.90;;;;;;5042068;28;20563;-78
2021/09/25 03:38:27;;;;;;;22.70;14.83;;;15.40;99.90;;;;;;5042506;28;20292;-78
2021/09/25 03:40:53;;;;;;;23.23;15.80;;;15.50;99.90;;;;;;5042133;28;20170;-78
2021/09/25 03:43:19;;;;;;;19.77;15.87;;;15.40;99.90;;;;;;5043258;28;20737;-78
2021/09/25 03:45:45;;;;;;;22.10;15.47;;;15.50;99.90;;;;;;5041276;28;20477;-78
2021/09/25 03:48:11;;;;;;;22.57;15.97;;;15.40;99.90;;;;;;5040241;28;20528;-78
2021/09/25 03:50:37;;;;;;;25.53;15.33;;;15.40;99.90;;;;;;5041911;28;20513;-78
2021/09/25 03:53:03;;;;;;;21.77;15.70;;;15.40;99.90;;;;;;5041442;28;20201;-78
2021/09/25 03:55:29;;;;;;;21.57;16.43;;;15.40;99.90;;;;;;5042760;28;20283;-78
2021/09/25 03:57:56;;;;;;;25.17;16.43;;;15.40;99.90;;;;;;5041137;28;20460;-78
2021/09/25 04:00:23;;;;;;;23.20;18.63;;;15.40;99.90;;;;;;5040537;28;20197;-78
2021/09/25 04:02:50;;;;;;;22.10;16.37;;;15.50;99.90;;;;;;5041415;28;20518;-78
2021/09/25 04:05:20;;;;;;;22.20;15.30;;;15.50;99.90;;;;;;5040620;28;20913;-78
2021/09/25 04:07:46;;;;;;;24.53;17.00;;;15.40;99.90;;;;;;5041418;28;20913;-78
2021/09/25 04:10:13;;;;;;;22.27;15.67;;;15.50;99.90;;;;;;5042839;28;20455;-78
2021/09/25 04:12:39;;;;;;;27.33;15.13;;;15.40;99.90;;;;;;5040974;28;20510;-79
2021/09/25 04:15:07;;;;;;;22.77;15.80;;;15.50;99.90;;;;;;5040902;28;20455;-79
2021/09/25 04:17:32;;;;;;;20.23;15.67;;;15.50;99.90;;;;;;5040602;28;20560;-79
2021/09/25 04:19:58;;;;;;;19.50;13.80;;;15.50;99.90;;;;;;5040749;28;20443;-79
2021/09/25 04:22:24;;;;;;;20.60;15.07;;;15.50;99.90;;;;;;5041581;28;20177;-79
2021/09/25 04:24:49;;;;;;;24.40;16.10;;;15.50;99.90;;;;;;5041584;28;20188;-79
2021/09/25 04:27:15;;;;;;;22.27;15.47;;;15.50;99.90;;;;;;5040385;28;20261;-79
2021/09/25 04:29:41;;;;;;;25.43;15.77;;;15.60;99.90;;;;;;5042461;28;20181;-79
2021/09/25 04:32:06;;;;;;;23.87;17.07;;;15.60;99.90;;;;;;5041932;28;20181;-79
2021/09/25 04:34:32;;;;;;;22.13;15.93;;;15.50;99.90;;;;;;5040303;28;20618;-79
2021/09/25 04:36:59;;;;;;;21.13;14.83;;;15.50;99.90;;;;;;5041055;28;20229;-79
2021/09/25 04:39:25;;;;;;;23.33;16.37;;;15.60;99.90;;;;;;5035419;28;20751;-79
2021/09/25 04:41:51;;;;;;;24.53;16.57;;;15.60;99.90;;;;;;5039417;28;20435;-79
2021/09/25 04:44:17;;;;;;;24.53;17.30;;;15.60;99.90;;;;;;5041215;28;20287;-78
2021/09/25 04:46:44;;;;;;;24.13;15.80;;;15.50;99.90;;;;;;5039972;28;20538;-79
2021/09/25 04:49:10;;;;;;;24.60;16.67;;;15.50;99.90;;;;;;5041590;28;20971;-79
2021/09/25 04:51:36;;;;;;;20.57;16.00;;;15.60;99.90;;;;;;5040244;28;20866;-79
2021/09/25 04:54:04;;;;;;;26.90;17.33;;;15.50;99.90;;;;;;5041374;28;20433;-79
2021/09/25 04:56:32;;;;;;;24.27;15.30;;;15.50;99.90;;;;;;5040099;28;20506;-79
2021/09/25 04:58:58;;;;;;;23.13;16.13;;;15.60;99.90;;;;;;5041628;28;20455;-79
2021/09/25 05:01:24;;;;;;;23.23;15.27;;;15.60;99.90;;;;;;5039655;28;20426;-79
2021/09/25 05:03:50;;;;;;;21.37;15.17;;;15.70;99.90;;;;;;5040982;28;20176;-79
2021/09/25 05:06:16;;;;;;;28.53;16.87;;;15.70;99.90;;;;;;5037773;28;20604;-79
2021/09/25 05:08:42;;;;;;;25.50;15.03;;;15.60;99.90;;;;;;5041952;28;20518;-79
2021/09/25 05:11:07;;;;;;;18.13;14.80;;;15.60;99.90;;;;;;5042921;28;20439;-79
2021/09/25 05:13:33;;;;;;;25.50;15.23;;;15.60;99.90;;;;;;5043854;28;20260;-79
2021/09/25 05:15:59;;;;;;;21.03;15.50;;;15.60;99.90;;;;;;5043954;28;20178;-79
2021/09/25 05:18:25;;;;;;;19.30;14.10;;;15.60;99.90;;;;;;5045298;28;20278;-79
2021/09/25 05:20:51;;;;;;;20.43;14.27;;;15.60;99.90;;;;;;5044931;28;20565;-79
2021/09/25 05:23:18;;;;;;;20.87;14.07;;;15.60;99.90;;;;;;5045453;28;20235;-79
2021/09/25 05:25:44;;;;;;;28.57;14.80;;;15.60;99.90;;;;;;5045173;28;20858;-79
2021/09/25 05:28:10;;;;;;;17.63;13.10;;;15.60;99.90;;;;;;5049365;28;20947;-79
2021/09/25 05:30:39;;;;;;;19.50;14.00;;;15.60;99.90;;;;;;5044369;28;20427;-79
2021/09/25 05:33:08;;;;;;;19.90;12.80;;;15.50;99.90;;;;;;5045538;28;20239;-79
2021/09/25 05:35:34;;;;;;;21.93;14.60;;;15.50;99.90;;;;;;5041220;28;20431;-79
2021/09/25 05:38:00;;;;;;;27.73;13.73;;;15.50;99.90;;;;;;5042786;28;20855;-79
2021/09/25 05:40:26;;;;;;;19.63;14.10;;;15.60;99.90;;;;;;5043955;28;20177;-79
2021/09/25 05:42:52;;;;;;;25.47;15.00;;;15.60;99.90;;;;;;5040967;28;20777;-78
2021/09/25 05:45:18;;;;;;;27.23;14.50;;;15.60;99.90;;;;;;5043746;28;20442;-79
2021/09/25 05:47:45;;;;;;;20.07;13.30;;;15.60;99.90;;;;;;5042690;28;20654;-79
2021/09/25 05:50:12;;;;;;;21.37;14.37;;;15.50;99.90;;;;;;5043497;28;20771;-79
2021/09/25 05:52:38;;;;;;;20.10;13.63;;;15.50;99.90;;;;;;5045242;28;20479;-78
2021/09/25 05:55:06;;;;;;;24.10;14.00;;;15.60;99.90;;;;;;5043207;28;20788;-79
2021/09/25 05:57:32;;;;;;;19.03;14.13;;;15.60;99.90;;;;;;5042691;28;20203;-78
2021/09/25 05:59:57;;;;;;;22.77;13.70;;;15.70;99.90;;;;;;5046081;28;20432;-79
2021/09/25 06:02:23;;;;;;;16.73;12.60;;;15.60;99.90;;;;;;5044764;28;20182;-79
2021/09/25 06:04:49;;;;;;;18.87;12.40;;;15.60;99.90;;;;;;5041727;28;20256;-79
2021/09/25 06:07:15;;;;;;;28.43;13.10;;;15.60;99.90;;;;;;5042682;28;20183;-79
2021/09/25 06:09:42;;;;;;;16.03;13.30;;;15.70;99.90;;;;;;5043467;28;20220;-78
2021/09/25 06:12:08;;;;;;;19.50;13.70;;;15.70;99.90;;;;;;5042883;28;20447;-79
2021/09/25 06:14:34;;;;;;;22.60;12.27;;;15.70;99.90;;;;;;5043536;28;20497;-79
2021/09/25 06:16:59;;;;;;;19.17;13.23;;;15.70;99.90;;;;;;5044017;28;20447;-78
2021/09/25 06:19:25;;;;;;;18.33;12.23;;;15.70;99.90;;;;;;5042854;28;20654;-79
2021/09/25 06:21:51;;;;;;;23.73;11.60;;;15.70;99.90;;;;;;5043341;28;20228;-78
2021/09/25 06:24:17;;;;;;;17.03;11.60;;;15.70;99.90;;;;;;5043522;28;20224;-79
2021/09/25 06:26:43;;;;;;;14.07;10.90;;;15.70;99.90;;;;;;5043701;28;20478;-79
2021/09/25 06:29:08;;;;;;;18.00;11.90;;;15.80;99.90;;;;;;5042389;28;20213;-79
2021/09/25 06:31:34;;;;;;;16.47;11.93;;;15.80;99.90;;;;;;5042183;28;20189;-78
2021/09/25 06:34:00;;;;;;;18.67;11.83;;;15.80;99.90;;;;;;5044281;28;20190;-79
2021/09/25 06:36:26;;;;;;;15.73;10.97;;;15.80;99.90;;;;;;5043643;28;20185;-79
2021/09/25 06:38:52;;;;;;;15.83;11.37;;;15.80;99.90;;;;;;5042372;28;20460;-78
2021/09/25 06:41:17;;;;;;;18.60;10.50;;;15.90;99.90;;;;;;5044408;28;20173;-79
2021/09/25 06:43:44;;;;;;;16.30;11.10;;;15.90;99.90;;;;;;5041879;28;20584;-79
2021/09/25 06:46:11;;;;;;;18.80;11.60;;;16.00;99.90;;;;;;5043671;28;20174;-79
2021/09/25 06:48:37;;;;;;;21.80;11.97;;;16.00;99.90;;;;;;5044685;28;20793;-79
2021/09/25 06:51:03;;;;;;;16.70;11.07;;;16.00;99.90;;;;;;5041678;28;20447;-79
2021/09/25 06:53:28;;;;;;;16.23;11.93;;;16.00;99.90;;;;;;5043172;28;20780;-78
2021/09/25 06:55:54;;;;;;;16.33;11.00;;;16.10;99.90;;;;;;5042958;28;20518;-78
2021/09/25 06:58:20;;;;;;;19.00;11.57;;;16.10;99.90;;;;;;5042851;28;20658;-77
2021/09/25 07:00:47;;;;;;;19.17;11.20;;;16.00;99.90;;;;;;5042145;28;20173;-75
2021/09/25 07:03:13;;;;;;;24.00;12.80;;;16.00;99.90;;;;;;5042332;28;20169;-78
2021/09/25 07:05:39;;;;;;;22.90;12.43;;;16.00;99.90;;;;;;5040703;28;20435;-77
2021/09/25 07:08:05;;;;;;;15.73;12.03;;;16.00;99.90;;;;;;5056782;28;20448;-77
2021/09/25 07:10:31;;;;;;;21.50;13.40;;;16.00;99.90;;;;;;5042751;28;20197;-78
2021/09/25 07:12:56;;;;;;;21.90;13.43;;;16.10;99.90;;;;;;5041414;28;20431;-77
2021/09/25 07:15:22;;;;;;;18.60;14.17;;;16.10;99.90;;;;;;5041617;28;20269;-78
2021/09/25 07:17:48;;;;;;;21.50;13.97;;;16.10;99.90;;;;;;5040088;28;20624;-79
2021/09/25 07:20:15;;;;;;;20.93;13.27;;;16.10;99.90;;;;;;5041778;28;20614;-78
2021/09/25 07:22:41;;;;;;;25.10;15.10;;;16.10;99.90;;;;;;5040996;28;20569;-78
2021/09/25 07:25:07;;;;;;;20.60;15.10;;;16.10;99.90;;;;;;5042586;28;20432;-78
2021/09/25 07:27:33;;;;;;;20.83;13.90;;;16.20;99.90;;;;;;5042892;28;20188;-78
2021/09/25 07:29:58;;;;;;;22.40;14.00;;;16.20;99.90;;;;;;5040274;28;20435;-78
2021/09/25 07:32:24;;;;;;;21.50;15.10;;;16.20;99.90;;;;;;5043428;28;20181;-79
2021/09/25 07:34:50;;;;;;;16.80;13.40;;;16.20;99.90;;;;;;5042758;28;20178;-79
2021/09/25 07:37:15;;;;;;;23.30;16.00;;;16.20;99.90;;;;;;5039895;28;20205;-78
2021/09/25 07:39:41;;;;;;;25.57;17.30;;;16.30;99.90;;;;;;5040620;28;20188;-78
2021/09/25 07:42:07;;;;;;;20.53;14.70;;;16.30;99.90;;;;;;5042078;28;20173;-78
2021/09/25 07:44:34;;;;;;;29.73;16.30;;;16.30;99.90;;;;;;5039534;28;20192;-78
2021/09/25 07:47:00;;;;;;;23.40;15.90;;;16.40;99.90;;;;;;5040767;28;20174;-78
2021/09/25 07:49:26;;;;;;;30.37;18.20;;;16.40;99.90;;;;;;5040487;28;20915;-78
2021/09/25 07:51:52;;;;;;;25.00;16.47;;;16.40;99.90;;;;;;5041048;28;20611;-78
2021/09/25 07:54:18;;;;;;;26.87;18.00;;;16.40;99.90;;;;;;5043492;28;20427;-78
2021/09/25 07:56:43;;;;;;;26.13;17.67;;;16.40;99.90;;;;;;5040553;28;20631;-78
2021/09/25 07:59:09;;;;;;;23.33;17.80;;;16.40;99.90;;;;;;5040764;28;20536;-78
2021/09/25 08:01:35;;;;;;;19.93;16.00;;;16.50;99.90;;;;;;5042179;28;20184;-79
2021/09/25 08:04:00;;;;;;;34.40;17.27;;;16.50;99.90;;;;;;5039620;28;20228;-79
2021/09/25 08:06:26;;;;;;;21.70;16.83;;;16.50;99.90;;;;;;5040154;28;20240;-79
2021/09/25 08:08:52;;;;;;;25.97;16.87;;;16.50;99.90;;;;;;5042803;28;20235;-79
2021/09/25 08:11:18;;;;;;;27.40;17.50;;;16.50;99.90;;;;;;5042978;28;20189;-79
2021/09/25 08:13:43;;;;;;;23.80;16.13;;;16.60;99.90;;;;;;5041396;28;20186;-78
2021/09/25 08:16:09;;;;;;;22.03;16.97;;;16.60;99.90;;;;;;5039659;28;20177;-79
2021/09/25 08:18:35;;;;;;;23.67;16.97;;;16.60;99.90;;;;;;5040901;28;20536;-79
2021/09/25 08:21:00;;;;;;;27.70;19.13;;;16.60;99.90;;;;;;5040387;28;20177;-79
2021/09/25 08:23:26;;;;;;;24.33;16.37;;;16.60;99.90;;;;;;5041125;28;20177;-79
2021/09/25 08:25:53;;;;;;;27.47;18.63;;;16.70;99.90;;;;;;5041977;28;20189;-79
2021/09/25 08:28:19;;;;;;;29.63;21.23;;;16.70;99.90;;;;;;5039515;28;20242;-79
2021/09/25 08:30:45;;;;;;;28.20;18.10;;;16.80;99.90;;;;;;5039896;28;20443;-79
2021/09/25 08:33:11;;;;;;;26.60;18.80;;;16.80;99.90;;;;;;5040920;28;20440;-79
2021/09/25 08:35:37;;;;;;;37.00;21.67;;;16.80;99.90;;;;;;5039920;28;20327;-79
2021/09/25 08:38:03;;;;;;;31.87;21.63;;;16.90;99.90;;;;;;5039904;28;20489;-79
2021/09/25 08:40:29;;;;;;;28.93;19.33;;;16.90;99.90;;;;;;5039224;28;20169;-79
2021/09/25 08:42:55;;;;;;;27.90;19.40;;;16.90;99.90;;;;;;5040978;28;20431;-79
2021/09/25 08:45:22;;;;;;;35.70;21.00;;;17.00;99.90;;;;;;5040076;28;20621;-79
2021/09/25 08:47:48;;;;;;;27.60;20.10;;;17.00;99.90;;;;;;5040098;28;20191;-79
2021/09/25 08:50:15;;;;;;;30.90;20.00;;;17.00;99.90;;;;;;5038985;28;20436;-79
2021/09/25 08:52:42;;;;;;;29.73;20.27;;;17.00;99.90;;;;;;5039351;28;20182;-79
2021/09/25 08:55:10;;;;;;;26.87;19.83;;;17.00;99.90;;;;;;5040614;28;20444;-78
2021/09/25 08:57:36;;;;;;;25.37;20.57;;;17.10;99.90;;;;;;5037480;28;20459;-78
2021/09/25 09:00:26;;;;;;;28.77;17.57;;;17.10;99.90;;;;;;5038458;28;20419;-78
2021/09/25 09:02:52;;;;;;;21.03;16.40;;;17.20;99.90;;;;;;5039993;28;20486;-78
2021/09/25 09:05:32;;;;;;;23.70;17.53;;;17.20;99.90;;;;;;5038998;28;20523;-78
2021/09/25 09:08:02;;;;;;;23.13;17.07;;;17.20;99.90;;;;;;5040737;28;20759;-78
2021/09/25 09:10:36;;;;;;;30.07;20.87;;;17.30;99.90;;;;;;5038900;28;20499;-78
2021/09/25 09:13:03;;;;;;;23.20;18.43;;;17.30;99.90;;;;;;5039017;28;20424;-78
2021/09/25 09:15:53;;;;;;;22.80;17.87;;;17.30;99.90;;;;;;5038469;28;20431;-78
2021/09/25 09:18:21;;;;;;;33.37;20.17;;;17.30;99.90;;;;;;5033568;28;20467;-78
2021/09/25 09:21:06;;;;;;;31.23;21.50;;;17.30;99.90;;;;;;5040006;28;20431;-78
2021/09/25 09:23:33;;;;;;;26.43;19.53;;;17.40;99.90;;;;;;5040371;28;20495;-78
2021/09/25 09:25:59;;;;;;;25.90;20.27;;;17.40;99.90;;;;;;5038561;28;20745;-78
2021/09/25 09:28:37;;;;;;;21.97;16.97;;;17.40;99.90;;;;;;5041764;28;20427;-79
2021/09/25 09:31:05;;;;;;;27.03;19.53;;;17.50;99.90;;;;;;5039845;28;20419;-77
2021/09/25 09:33:33;;;;;;;23.00;16.40;;;17.50;99.90;;;;;;5039734;28;21148;-77
2021/09/25 09:36:33;;;;;;;23.70;19.07;;;17.60;99.90;;;;;;5042654;28;20464;-77
2021/09/25 09:39:15;;;;;;;25.37;18.20;;;17.60;99.90;;;;;;5038262;28;20456;-77
2021/09/25 09:41:58;;;;;;;17.90;16.07;;;17.70;99.90;;;;;;5040259;28;20435;-78
2021/09/25 09:44:32;;;;;;;27.77;21.63;;;17.80;99.90;;;;;;5039109;28;20451;-77
2021/09/25 09:47:08;;;;;;;25.53;21.03;;;17.90;99.90;;;;;;5037712;28;20416;-78
2021/09/25 09:49:37;;;;;;;27.43;20.50;;;17.90;99.90;;;;;;5039768;28;20429;-78
2021/09/25 09:52:04;;;;;;;28.07;20.20;;;18.00;99.90;;;;;;5040319;28;20423;-78
2021/09/25 09:54:33;;;;;;;27.67;20.50;;;17.90;99.90;;;;;;5041252;28;20522;-79
2021/09/25 09:57:01;;;;;;;26.73;20.40;;;18.10;99.90;;;;;;5041326;28;20822;-78
2021/09/25 09:59:28;;;;;;;26.80;19.40;;;18.20;99.90;;;;;;5043427;28;20489;-78
2021/09/25 10:01:53;;;;;;;31.40;20.40;;;18.30;99.90;;;;;;5044231;28;20914;-78
2021/09/25 10:04:20;;;;;;;21.87;17.17;;;18.50;99.90;;;;;;5044744;28;20482;-78
2021/09/25 10:06:47;;;;;;;21.30;17.87;;;18.60;99.90;;;;;;5043845;28;20228;-78
2021/09/25 10:09:16;;;;;;;25.43;17.07;;;18.70;99.90;;;;;;5044220;28;20428;-78
2021/09/25 10:11:43;;;;;;;24.17;17.20;;;18.70;99.90;;;;;;5043758;28;20480;-78
2021/09/25 10:14:13;;;;;;;27.30;17.87;;;18.80;99.90;;;;;;5043619;28;20440;-78
2021/09/25 10:16:41;;;;;;;23.57;16.80;;;18.90;99.90;;;;;;5044281;28;20427;-78
2021/09/25 10:19:06;;;;;;;20.07;16.70;;;18.90;99.90;;;;;;5044635;28;20514;-78
2021/09/25 10:21:35;;;;;;;16.10;14.17;;;18.90;99.90;;;;;;5042723;28;20439;-78
2021/09/25 10:24:11;;;;;;;20.60;15.40;;;19.00;99.90;;;;;;5043212;28;20170;-78
2021/09/25 10:26:44;;;;;;;19.30;14.60;;;19.10;99.90;;;;;;5044973;28;20428;-78
2021/09/25 10:29:19;;;;;;;16.63;13.63;;;19.30;99.90;;;;;;5043827;28;20901;-78
2021/09/25 10:31:45;;;;;;;22.00;14.80;;;19.40;99.90;;;;;;5044064;28;20439;-78
2021/09/25 10:34:27;;;;;;;20.37;14.27;;;19.40;99.90;;;;;;5044795;28;20519;-78
2021/09/25 10:36:59;;;;;;;14.90;12.23;;;19.50;99.90;;;;;;5043839;28;20468;-78
2021/09/25 10:39:34;;;;;;;15.90;13.30;;;19.60;99.90;;;;;;5044167;28;20428;-78
2021/09/25 10:42:11;;;;;;;16.57;11.70;;;19.50;99.90;;;;;;5043964;28;20423;-78
2021/09/25 10:44:44;;;;;;;15.43;13.87;;;19.50;99.90;;;;;;5042934;28;20443;-78
2021/09/25 10:47:14;;;;;;;13.77;12.03;;;19.50;99.90;;;;;;5043554;28;20446;-78
2021/09/25 10:49:56;;;;;;;14.60;11.50;;;19.50;99.90;;;;;;5043933;28;20431;-78
2021/09/25 10:52:51;;;;;;;15.23;12.80;;;19.50;99.90;;;;;;5043689;28;20737;-78
2021/09/25 10:55:28;;;;;;;13.30;10.37;;;19.60;99.90;;;;;;5042560;28;20440;-78
2021/09/25 10:58:27;;;;;;;11.00;10.00;;;19.70;99.90;;;;;;5044362;28;20460;-78
2021/09/25 11:00:59;;;;;;;11.17;9.20;;;19.90;99.90;;;;;;5044918;28;20503;-78
2021/09/25 11:03:40;;;;;;;13.17;10.10;;;20.10;99.90;;;;;;5043942;28;20431;-78
2021/09/25 11:06:25;;;;;;;12.70;7.87;;;20.10;99.90;;;;;;5044404;28;20428;-78
2021/09/25 11:08:58;;;;;;;6.80;6.17;;;20.20;99.90;;;;;;5043670;28;20420;-78
2021/09/25 11:11:33;;;;;;;7.17;6.47;;;20.40;99.90;;;;;;5048755;28;20443;-78
2021/09/25 11:14:02;;;;;;;7.17;5.47;;;20.70;99.90;;;;;;5043357;28;20444;-78
2021/09/25 11:16:48;;;;;;;6.87;6.07;;;20.90;99.90;;;;;;5044349;28;20444;-78
2021/09/25 11:19:24;;;;;;;7.67;6.13;;;21.00;99.90;;;;;;5043697;28;20611;-78
2021/09/25 11:22:12;;;;;;;5.23;4.83;;;21.20;99.90;;;;;;5043407;28;20458;-78
2021/09/25 11:24:42;;;;;;;7.23;5.23;;;21.20;99.90;;;;;;5036551;28;20452;-78
2021/09/25 11:27:19;;;;;;;8.10;5.87;;;21.50;99.90;;;;;;5042127;28;20892;-78
2021/09/25 11:29:50;;;;;;;7.33;4.40;;;21.80;99.90;;;;;;5043308;28;20432;-78
2021/09/25 11:32:16;;;;;;;5.40;4.90;;;22.00;99.90;;;;;;5039716;28;20429;-78
2021/09/25 11:34:41;;;;;;;4.53;4.13;;;21.70;99.90;;;;;;5042673;28;20430;-78
2021/09/25 11:37:07;;;;;;;9.03;3.77;;;21.50;99.90;;;;;;5042325;28;20631;-78
2021/09/25 11:39:40;;;;;;;3.83;3.53;;;21.40;99.90;;;;;;5042616;28;20677;-78
2021/09/25 11:42:10;;;;;;;5.57;3.80;;;21.20;99.90;;;;;;5042775;28;20274;-78
2021/09/25 11:44:59;;;;;;;10.50;4.50;;;21.20;99.90;;;;;;5041191;28;20450;-78
2021/09/25 11:47:34;;;;;;;4.87;3.80;;;21.10;99.90;;;;;;5043020;28;20424;-78
2021/09/25 11:50:24;;;;;;;4.10;3.70;;;21.10;99.90;;;;;;5042552;28;20430;-78
2021/09/25 11:52:52;;;;;;;6.80;3.77;;;21.30;99.90;;;;;;5043710;28;20438;-78
2021/09/25 11:55:18;;;;;;;5.00;3.10;;;21.40;99.90;;;;;;5043638;28;20424;-78
2021/09/25 11:58:15;;;;;;;6.03;3.70;;;21.50;99.90;;;;;;5041894;28;20455;-78
2021/09/25 12:00:42;;;;;;;7.37;4.43;;;21.50;99.90;;;;;;5031589;28;20852;-78
2021/09/25 12:03:09;;;;;;;6.80;5.00;;;21.50;99.90;;;;;;5042734;28;20509;-78
2021/09/25 12:05:37;;;;;;;4.03;3.77;;;21.30;99.90;;;;;;5039832;28;20983;-78
2021/09/25 12:08:13;;;;;;;2.93;2.63;;;21.20;99.90;;;;;;5041547;28;20447;-78
2021/09/25 12:10:44;;;;;;;5.00;4.13;;;21.10;99.90;;;;;;5042573;28;20409;-78
2021/09/25 12:13:13;;;;;;;6.47;4.50;;;21.10;99.90;;;;;;5042276;28;20439;-78
2021/09/25 12:15:42;;;;;;;5.53;3.30;;;21.10;99.90;;;;;;5042460;28;20428;-78
2021/09/25 12:18:22;;;;;;;5.20;3.23;;;21.00;99.90;;;;;;5041541;28;20551;-78
2021/09/25 12:21:00;;;;;;;3.70;3.40;;;21.00;99.90;;;;;;5041237;28;20427;-78
2021/09/25 12:23:41;;;;;;;4.30;3.90;;;21.00;99.90;;;;;;5039990;28;21032;-78
2021/09/25 12:26:19;;;;;;;3.83;3.50;;;21.00;99.90;;;;;;5041044;28;20486;-78
2021/09/25 12:28:46;;;;;;;5.70;3.40;;;20.90;99.90;;;;;;5041979;28;20417;-78
2021/09/25 12:31:36;;;;;;;4.30;3.77;;;20.90;99.90;;;;;;5042101;28;20408;-78
2021/09/25 12:34:14;;;;;;;2.83;2.63;;;20.90;99.90;;;;;;5042222;28;20428;-78
2021/09/25 12:36:47;;;;;;;3.70;3.40;;;21.00;99.90;;;;;;5042579;28;20433;-78
2021/09/25 12:39:15;;;;;;;4.53;3.50;;;21.10;99.90;;;;;;5041922;28;20466;-78